Mazarn, Arkansas
Current Conditions -  °F | °C
As of 8:53 PM on Wednesday 26 Nov 2014 (Local Time) from KHOT Reporting Station
Clear Clear  
Wind Chill:   Ceiling: Unl
Heat Index:   Visibility: 10mi
Dew Point: -2°   Wind: 8mph
Humidity: 46%   Direction: 270°W
Pressure: 30.23"   Gusts: NA
Location:  34.3467°N, 93.3187°W
Report Text: KHOT 270253Z AUTO 27007KT 10SM CLR 09/M02 A3023 RMK AO2 SLP236 T00941017 53023
Loading
Personal Weather Stations






























Interactive Weather Map New forecast layout! Learn more

10-Day Weather Forecast

Advertisements
Track Severe Weather on mobile